sensor_id;sensor_type;location;lat;lon;timestamp;pressure;altitude;pressure_sealevel;temperature;humidity
62708;BME280;48769;51.624;5.886;2022-12-13T00:00:42;101050.53;;;-0.85;75.59
62708;BME280;48769;51.624;5.886;2022-12-13T00:03:07;101042.78;;;-0.84;75.57
62708;BME280;48769;51.624;5.886;2022-12-13T00:05:34;101041.03;;;-0.88;75.66
62708;BME280;48769;51.624;5.886;2022-12-13T00:08:00;101040.16;;;-0.85;75.46
62708;BME280;48769;51.624;5.886;2022-12-13T00:10:26;101043.66;;;-0.86;75.56
62708;BME280;48769;51.624;5.886;2022-12-13T00:12:52;101043.63;;;-0.88;75.40
62708;BME280;48769;51.624;5.886;2022-12-13T00:15:17;101039.34;;;-0.90;75.45
62708;BME280;48769;51.624;5.886;2022-12-13T00:17:43;101035.88;;;-0.97;75.81
62708;BME280;48769;51.624;5.886;2022-12-13T00:20:10;101034.13;;;-1.04;76.45
62708;BME280;48769;51.624;5.886;2022-12-13T00:22:35;101033.28;;;-1.06;76.27
62708;BME280;48769;51.624;5.886;2022-12-13T00:25:00;101029.81;;;-1.02;76.03
62708;BME280;48769;51.624;5.886;2022-12-13T00:27:25;101028.94;;;-1.01;76.26
62708;BME280;48769;51.624;5.886;2022-12-13T00:29:51;101031.56;;;-1.00;75.75
62708;BME280;48769;51.624;5.886;2022-12-13T00:32:16;101028.09;;;-0.99;75.99
62708;BME280;48769;51.624;5.886;2022-12-13T00:34:41;101039.34;;;-1.06;75.77
62708;BME280;48769;51.624;5.886;2022-12-13T00:37:07;101042.78;;;-1.11;75.88
62708;BME280;48769;51.624;5.886;2022-12-13T00:39:32;101044.53;;;-1.20;76.20
62708;BME280;48769;51.624;5.886;2022-12-13T00:41:57;101036.75;;;-1.16;76.52
62708;BME280;48769;51.624;5.886;2022-12-13T00:44:23;101034.16;;;-1.13;76.44
62708;BME280;48769;51.624;5.886;2022-12-13T00:46:48;101028.13;;;-1.12;76.20
62708;BME280;48769;51.624;5.886;2022-12-13T00:49:16;101035.00;;;-1.11;76.44
62708;BME280;48769;51.624;5.886;2022-12-13T00:51:41;101032.41;;;-1.08;76.13
62708;BME280;48769;51.624;5.886;2022-12-13T00:54:07;101027.25;;;-1.10;76.32
62708;BME280;48769;51.624;5.886;2022-12-13T00:56:33;101030.72;;;-1.12;76.15
62708;BME280;48769;51.624;5.886;2022-12-13T00:58:59;101021.22;;;-1.16;76.56
62708;BME280;48769;51.624;5.886;2022-12-13T01:01:27;101035.00;;;-1.18;77.02
62708;BME280;48769;51.624;5.886;2022-12-13T01:03:54;101024.66;;;-1.13;76.06
62708;BME280;48769;51.624;5.886;2022-12-13T01:06:25;101029.00;;;-1.13;76.20
62708;BME280;48769;51.624;5.886;2022-12-13T01:08:51;101029.00;;;-1.13;76.09
62708;BME280;48769;51.624;5.886;2022-12-13T01:11:17;101025.53;;;-1.15;76.32
62708;BME280;48769;51.624;5.886;2022-12-13T01:13:43;101021.22;;;-1.16;76.25
62708;BME280;48769;51.624;5.886;2022-12-13T01:16:10;101021.19;;;-1.18;76.19
62708;BME280;48769;51.624;5.886;2022-12-13T01:18:37;101022.94;;;-1.20;76.25
62708;BME280;48769;51.624;5.886;2022-12-13T01:21:05;101033.31;;;-1.20;76.40
62708;BME280;48769;51.624;5.886;2022-12-13T01:23:31;101033.28;;;-1.22;76.13
62708;BME280;48769;51.624;5.886;2022-12-13T01:25:56;101032.41;;;-1.24;75.82
62708;BME280;48769;51.624;5.886;2022-12-13T01:28:23;101023.81;;;-1.32;76.53
62708;BME280;48769;51.624;5.886;2022-12-13T01:31:03;101027.25;;;-1.33;76.11
62708;BME280;48769;51.624;5.886;2022-12-13T01:33:29;101028.97;;;-1.35;76.22
62708;BME280;48769;51.624;5.886;2022-12-13T01:35:58;101035.88;;;-1.40;76.62
62708;BME280;48769;51.624;5.886;2022-12-13T01:38:24;101034.16;;;-1.38;76.47
62708;BME280;48769;51.624;5.886;2022-12-13T01:40:50;101035.00;;;-1.37;76.34
62708;BME280;48769;51.624;5.886;2022-12-13T01:43:27;101032.44;;;-1.39;76.41
62708;BME280;48769;51.624;5.886;2022-12-13T01:45:53;101029.84;;;-1.41;76.15
62708;BME280;48769;51.624;5.886;2022-12-13T01:48:23;101031.56;;;-1.43;76.14
62708;BME280;48769;51.624;5.886;2022-12-13T01:50:51;101029.84;;;-1.48;76.16
62708;BME280;48769;51.624;5.886;2022-12-13T01:53:20;101025.53;;;-1.52;75.90
62708;BME280;48769;51.624;5.886;2022-12-13T01:55:51;101037.59;;;-1.54;75.95
62708;BME280;48769;51.624;5.886;2022-12-13T01:58:19;101026.34;;;-1.56;75.98
62708;BME280;48769;51.624;5.886;2022-12-13T02:00:46;101035.00;;;-1.57;76.36
62708;BME280;48769;51.624;5.886;2022-12-13T02:03:12;101031.53;;;-1.59;76.52
62708;BME280;48769;51.624;5.886;2022-12-13T02:05:44;101032.44;;;-1.59;76.80
62708;BME280;48769;51.624;5.886;2022-12-13T02:08:14;101025.50;;;-1.58;76.88
62708;BME280;48769;51.624;5.886;2022-12-13T02:10:41;101025.50;;;-1.58;76.31
62708;BME280;48769;51.624;5.886;2022-12-13T02:13:06;101027.25;;;-1.59;76.79
62708;BME280;48769;51.624;5.886;2022-12-13T02:21:25;101031.56;;;-1.62;76.78
62708;BME280;48769;51.624;5.886;2022-12-13T02:29:47;101036.75;;;-1.66;76.78
62708;BME280;48769;51.624;5.886;2022-12-13T02:32:36;101025.50;;;-1.65;76.99
62708;BME280;48769;51.624;5.886;2022-12-13T02:35:21;101034.13;;;-1.69;76.77
62708;BME280;48769;51.624;5.886;2022-12-13T02:40:41;101034.13;;;-1.72;76.99
62708;BME280;48769;51.624;5.886;2022-12-13T02:43:29;101025.50;;;-1.71;77.02
62708;BME280;48769;51.624;5.886;2022-12-13T02:46:00;101022.03;;;-1.71;77.02
62708;BME280;48769;51.624;5.886;2022-12-13T02:48:30;101018.59;;;-1.72;77.14
62708;BME280;48769;51.624;5.886;2022-12-13T02:50:58;101025.47;;;-1.77;77.15
62708;BME280;48769;51.624;5.886;2022-12-13T02:53:24;101022.03;;;-1.82;77.63
62708;BME280;48769;51.624;5.886;2022-12-13T02:55:53;101015.09;;;-1.83;77.46
62708;BME280;48769;51.624;5.886;2022-12-13T02:58:22;101010.78;;;-1.82;77.63
62708;BME280;48769;51.624;5.886;2022-12-13T03:03:51;101006.50;;;-1.82;77.29
62708;BME280;48769;51.624;5.886;2022-12-13T03:17:36;101007.34;;;-1.91;77.35
62708;BME280;48769;51.624;5.886;2022-12-13T03:20:06;101004.72;;;-1.92;77.10
62708;BME280;48769;51.624;5.886;2022-12-13T03:22:33;101005.59;;;-1.95;77.26
62708;BME280;48769;51.624;5.886;2022-12-13T03:24:59;100998.66;;;-1.99;77.48
62708;BME280;48769;51.624;5.886;2022-12-13T03:27:24;100999.53;;;-2.03;77.07
62708;BME280;48769;51.624;5.886;2022-12-13T03:29:49;101003.84;;;-2.08;77.64
62708;BME280;48769;51.624;5.886;2022-12-13T03:32:15;101005.53;;;-2.15;77.38
62708;BME280;48769;51.624;5.886;2022-12-13T03:34:40;100999.50;;;-2.17;77.74
62708;BME280;48769;51.624;5.886;2022-12-13T03:37:05;101001.22;;;-2.13;77.83
62708;BME280;48769;51.624;5.886;2022-12-13T03:39:31;101002.94;;;-2.15;77.62
62708;BME280;48769;51.624;5.886;2022-12-13T03:41:56;101010.72;;;-2.18;78.02
62708;BME280;48769;51.624;5.886;2022-12-13T03:44:21;101006.38;;;-2.22;78.37
62708;BME280;48769;51.624;5.886;2022-12-13T03:46:47;100996.88;;;-2.23;78.16
62708;BME280;48769;51.624;5.886;2022-12-13T03:49:12;100994.28;;;-2.26;78.13
62708;BME280;48769;51.624;5.886;2022-12-13T03:51:37;100996.00;;;-2.28;78.20
62708;BME280;48769;51.624;5.886;2022-12-13T03:54:03;100998.59;;;-2.26;78.22
62708;BME280;48769;51.624;5.886;2022-12-13T03:56:28;101005.50;;;-2.25;78.36
62708;BME280;48769;51.624;5.886;2022-12-13T03:58:53;101004.63;;;-2.26;78.07
62708;BME280;48769;51.624;5.886;2022-12-13T04:01:19;101011.53;;;-2.25;78.29
62708;BME280;48769;51.624;5.886;2022-12-13T04:03:45;101001.16;;;-2.28;77.63
62708;BME280;48769;51.624;5.886;2022-12-13T04:06:11;101005.50;;;-2.25;78.00
62708;BME280;48769;51.624;5.886;2022-12-13T04:08:37;101009.81;;;-2.26;78.30
62708;BME280;48769;51.624;5.886;2022-12-13T04:11:03;101004.63;;;-2.24;78.13
62708;BME280;48769;51.624;5.886;2022-12-13T04:13:49;101008.09;;;-2.27;77.98
62708;BME280;48769;51.624;5.886;2022-12-13T04:16:15;101006.34;;;-2.28;77.99
62708;BME280;48769;51.624;5.886;2022-12-13T04:18:40;100999.47;;;-2.26;78.32
62708;BME280;48769;51.624;5.886;2022-12-13T04:21:06;100999.47;;;-2.23;77.65
62708;BME280;48769;51.624;5.886;2022-12-13T04:23:31;100989.13;;;-2.26;77.49
62708;BME280;48769;51.624;5.886;2022-12-13T04:25:57;100999.44;;;-2.24;77.72
62708;BME280;48769;51.624;5.886;2022-12-13T04:28:23;100985.66;;;-2.25;77.41
62708;BME280;48769;51.624;5.886;2022-12-13T04:30:52;100979.63;;;-2.25;77.71
62708;BME280;48769;51.624;5.886;2022-12-13T04:33:17;100983.94;;;-2.26;77.37
62708;BME280;48769;51.624;5.886;2022-12-13T04:35:45;100985.63;;;-2.31;77.27
62708;BME280;48769;51.624;5.886;2022-12-13T04:38:11;100984.75;;;-2.35;77.97
62708;BME280;48769;51.624;5.886;2022-12-13T04:40:36;100973.56;;;-2.32;77.50
62708;BME280;48769;51.624;5.886;2022-12-13T04:43:02;100976.16;;;-2.33;77.64
62708;BME280;48769;51.624;5.886;2022-12-13T04:45:27;100986.50;;;-2.33;77.29
62708;BME280;48769;51.624;5.886;2022-12-13T04:47:52;100988.22;;;-2.32;77.67
62708;BME280;48769;51.624;5.886;2022-12-13T04:50:17;100981.34;;;-2.33;77.48
62708;BME280;48769;51.624;5.886;2022-12-13T04:52:43;100980.44;;;-2.34;77.48
62708;BME280;48769;51.624;5.886;2022-12-13T04:55:09;100982.19;;;-2.33;77.63
62708;BME280;48769;51.624;5.886;2022-12-13T04:57:34;100979.59;;;-2.36;77.36
62708;BME280;48769;51.624;5.886;2022-12-13T05:00:00;100983.91;;;-2.37;77.17
62708;BME280;48769;51.624;5.886;2022-12-13T05:02:25;100980.47;;;-2.37;77.06
62708;BME280;48769;51.624;5.886;2022-12-13T05:04:51;100981.31;;;-2.35;77.30
62708;BME280;48769;51.624;5.886;2022-12-13T05:07:16;100982.16;;;-2.38;77.12
62708;BME280;48769;51.624;5.886;2022-12-13T05:09:41;100983.88;;;-2.41;77.51
62708;BME280;48769;51.624;5.886;2022-12-13T05:12:07;100977.00;;;-2.44;77.47
62708;BME280;48769;51.624;5.886;2022-12-13T05:14:32;100977.84;;;-2.45;77.26
62708;BME280;48769;51.624;5.886;2022-12-13T05:16:59;100979.56;;;-2.45;77.60
62708;BME280;48769;51.624;5.886;2022-12-13T05:19:24;100976.09;;;-2.49;77.52
62708;BME280;48769;51.624;5.886;2022-12-13T05:21:50;100976.94;;;-2.51;77.59
62708;BME280;48769;51.624;5.886;2022-12-13T05:24:15;100982.97;;;-2.51;77.47
62708;BME280;48769;51.624;5.886;2022-12-13T05:26:41;100980.38;;;-2.51;77.52
62708;BME280;48769;51.624;5.886;2022-12-13T05:29:06;100971.78;;;-2.51;77.93
62708;BME280;48769;51.624;5.886;2022-12-13T05:31:32;100971.78;;;-2.51;77.72
62708;BME280;48769;51.624;5.886;2022-12-13T05:33:57;100963.13;;;-2.55;77.78
62708;BME280;48769;51.624;5.886;2022-12-13T05:36:23;100968.31;;;-2.55;77.95
62708;BME280;48769;51.624;5.886;2022-12-13T05:38:50;100970.91;;;-2.55;77.35
62708;BME280;48769;51.624;5.886;2022-12-13T05:41:18;100968.31;;;-2.56;77.72
62708;BME280;48769;51.624;5.886;2022-12-13T05:43:45;100958.84;;;-2.56;77.56
62708;BME280;48769;51.624;5.886;2022-12-13T05:46:13;100965.72;;;-2.55;77.86
62708;BME280;48769;51.624;5.886;2022-12-13T05:48:39;100957.09;;;-2.54;78.13
62708;BME280;48769;51.624;5.886;2022-12-13T05:51:04;100952.81;;;-2.53;77.95
62708;BME280;48769;51.624;5.886;2022-12-13T05:53:30;100953.69;;;-2.53;78.23
62708;BME280;48769;51.624;5.886;2022-12-13T05:55:58;100954.53;;;-2.52;77.89
62708;BME280;48769;51.624;5.886;2022-12-13T05:58:24;100957.97;;;-2.55;78.61
62708;BME280;48769;51.624;5.886;2022-12-13T06:00:49;100948.50;;;-2.53;78.73
62708;BME280;48769;51.624;5.886;2022-12-13T06:03:14;100945.91;;;-2.51;79.01
62708;BME280;48769;51.624;5.886;2022-12-13T06:05:40;100945.91;;;-2.48;79.37
62708;BME280;48769;51.624;5.886;2022-12-13T06:08:06;100951.09;;;-2.48;80.19
62708;BME280;48769;51.624;5.886;2022-12-13T06:10:31;100951.09;;;-2.45;80.25
62708;BME280;48769;51.624;5.886;2022-12-13T06:12:56;100946.81;;;-2.46;80.87
62708;BME280;48769;51.624;5.886;2022-12-13T06:15:22;100951.09;;;-2.45;80.31
62708;BME280;48769;51.624;5.886;2022-12-13T06:17:47;100955.41;;;-2.44;80.57
62708;BME280;48769;51.624;5.886;2022-12-13T06:20:12;100959.75;;;-2.43;81.28
62708;BME280;48769;51.624;5.886;2022-12-13T06:22:37;100951.97;;;-2.45;81.66
62708;BME280;48769;51.624;5.886;2022-12-13T06:25:03;100953.69;;;-2.42;81.60
62708;BME280;48769;51.624;5.886;2022-12-13T06:27:29;100951.13;;;-2.44;82.08
62708;BME280;48769;51.624;5.886;2022-12-13T06:29:54;100950.25;;;-2.41;81.95
62708;BME280;48769;51.624;5.886;2022-12-13T06:32:20;100951.13;;;-2.36;81.38
62708;BME280;48769;51.624;5.886;2022-12-13T06:34:45;100960.63;;;-2.37;81.53
62708;BME280;48769;51.624;5.886;2022-12-13T06:37:12;100956.31;;;-2.39;82.28
62708;BME280;48769;51.624;5.886;2022-12-13T06:39:38;100948.56;;;-2.36;82.06
62708;BME280;48769;51.624;5.886;2022-12-13T06:42:05;100954.56;;;-2.34;81.46
62708;BME280;48769;51.624;5.886;2022-12-13T06:44:31;100958.03;;;-2.35;81.57
62708;BME280;48769;51.624;5.886;2022-12-13T06:46:57;100961.50;;;-2.36;81.46
62708;BME280;48769;51.624;5.886;2022-12-13T06:49:23;100961.50;;;-2.36;81.85
62708;BME280;48769;51.624;5.886;2022-12-13T06:51:48;100964.94;;;-2.36;82.21
62708;BME280;48769;51.624;5.886;2022-12-13T06:54:13;100959.78;;;-2.37;81.64
62708;BME280;48769;51.624;5.886;2022-12-13T06:56:38;100958.88;;;-2.42;81.65
62708;BME280;48769;51.624;5.886;2022-12-13T06:59:04;100952.81;;;-2.44;81.80
62708;BME280;48769;51.624;5.886;2022-12-13T07:01:29;100953.69;;;-2.42;81.39
62708;BME280;48769;51.624;5.886;2022-12-13T07:03:54;100956.28;;;-2.42;81.62
62708;BME280;48769;51.624;5.886;2022-12-13T07:06:22;100960.59;;;-2.46;81.86
62708;BME280;48769;51.624;5.886;2022-12-13T07:08:49;100956.28;;;-2.45;81.41
62708;BME280;48769;51.624;5.886;2022-12-13T07:11:18;100962.34;;;-2.43;81.88
62708;BME280;48769;51.624;5.886;2022-12-13T07:13:44;100957.16;;;-2.40;81.95
62708;BME280;48769;51.624;5.886;2022-12-13T07:16:10;100958.03;;;-2.38;82.06
62708;BME280;48769;51.624;5.886;2022-12-13T07:18:35;100964.91;;;-2.39;82.51
62708;BME280;48769;51.624;5.886;2022-12-13T07:21:03;100964.94;;;-2.37;81.98
62708;BME280;48769;51.624;5.886;2022-12-13T07:23:29;100968.38;;;-2.38;82.16
62708;BME280;48769;51.624;5.886;2022-12-13T07:25:55;100971.81;;;-2.39;81.54
62708;BME280;48769;51.624;5.886;2022-12-13T07:28:20;100971.81;;;-2.42;81.31
62708;BME280;48769;51.624;5.886;2022-12-13T07:30:46;100971.78;;;-2.45;81.57
62708;BME280;48769;51.624;5.886;2022-12-13T07:33:12;100959.75;;;-2.31;81.38
62708;BME280;48769;51.624;5.886;2022-12-13T07:35:38;100974.44;;;-2.28;80.75
62708;BME280;48769;51.624;5.886;2022-12-13T07:38:05;100968.41;;;-2.29;81.22
62708;BME280;48769;51.624;5.886;2022-12-13T07:40:32;100965.81;;;-2.24;81.26
62708;BME280;48769;51.624;5.886;2022-12-13T07:42:58;100967.56;;;-2.23;81.58
62708;BME280;48769;51.624;5.886;2022-12-13T07:45:23;100975.31;;;-2.22;81.43
62708;BME280;48769;51.624;5.886;2022-12-13T07:47:49;100978.78;;;-2.23;82.10
62708;BME280;48769;51.624;5.886;2022-12-13T07:50:14;100974.47;;;-2.19;82.15
62708;BME280;48769;51.624;5.886;2022-12-13T07:52:40;100975.31;;;-2.19;81.95
62708;BME280;48769;51.624;5.886;2022-12-13T07:55:07;100979.66;;;-2.16;81.92
62708;BME280;48769;51.624;5.886;2022-12-13T07:57:33;100980.53;;;-2.13;82.08
62708;BME280;48769;51.624;5.886;2022-12-13T07:59:58;100990.00;;;-2.21;82.75
62708;BME280;48769;51.624;5.886;2022-12-13T08:02:24;100993.41;;;-2.28;84.25
62708;BME280;48769;51.624;5.886;2022-12-13T08:04:49;100996.03;;;-2.16;83.47
62708;BME280;48769;51.624;5.886;2022-12-13T08:07:15;100993.44;;;-2.20;83.47
62708;BME280;48769;51.624;5.886;2022-12-13T08:09:40;100997.75;;;-2.24;83.92
62708;BME280;48769;51.624;5.886;2022-12-13T08:12:06;100997.75;;;-2.15;83.75
62708;BME280;48769;51.624;5.886;2022-12-13T08:14:31;100997.78;;;-2.08;83.26
62708;BME280;48769;51.624;5.886;2022-12-13T08:16:57;101001.22;;;-2.13;83.97
62708;BME280;48769;51.624;5.886;2022-12-13T08:19:22;100997.78;;;-2.08;84.00
62708;BME280;48769;51.624;5.886;2022-12-13T08:21:51;100996.03;;;-2.16;84.88
62708;BME280;48769;51.624;5.886;2022-12-13T08:24:17;100992.63;;;-2.10;84.85
62708;BME280;48769;51.624;5.886;2022-12-13T08:26:42;100986.59;;;-2.04;84.53
62708;BME280;48769;51.624;5.886;2022-12-13T08:29:08;100990.88;;;-2.09;84.83
62708;BME280;48769;51.624;5.886;2022-12-13T08:31:34;100984.00;;;-2.07;85.72
62708;BME280;48769;51.624;5.886;2022-12-13T08:33:59;100980.53;;;-2.09;86.29
62708;BME280;48769;51.624;5.886;2022-12-13T08:36:25;100977.97;;;-1.99;85.86
62708;BME280;48769;51.624;5.886;2022-12-13T08:38:50;100987.47;;;-1.96;85.72
62708;BME280;48769;51.624;5.886;2022-12-13T08:41:17;100981.44;;;-1.86;84.80
62708;BME280;48769;51.624;5.886;2022-12-13T08:43:43;100988.34;;;-1.80;84.46
62708;BME280;48769;51.624;5.886;2022-12-13T08:46:08;100993.53;;;-1.85;85.59
62708;BME280;48769;51.624;5.886;2022-12-13T08:48:34;100989.22;;;-1.83;85.53
62708;BME280;48769;51.624;5.886;2022-12-13T08:51:05;100990.94;;;-1.70;85.16
62708;BME280;48769;51.624;5.886;2022-12-13T08:53:31;101000.47;;;-1.61;84.92
62708;BME280;48769;51.624;5.886;2022-12-13T08:56:03;101006.50;;;-1.54;84.41
62708;BME280;48769;51.624;5.886;2022-12-13T08:58:29;100995.28;;;-1.55;84.33
62708;BME280;48769;51.624;5.886;2022-12-13T09:00:55;101006.50;;;-1.57;84.47
62708;BME280;48769;51.624;5.886;2022-12-13T09:03:21;100996.16;;;-1.60;84.70
62708;BME280;48769;51.624;5.886;2022-12-13T09:05:46;101004.78;;;-1.55;84.92
62708;BME280;48769;51.624;5.886;2022-12-13T09:08:11;101002.19;;;-1.45;84.51
62708;BME280;48769;51.624;5.886;2022-12-13T09:10:37;101000.47;;;-1.27;84.08
62708;BME280;48769;51.624;5.886;2022-12-13T09:13:03;101006.50;;;-1.21;83.96
62708;BME280;48769;51.624;5.886;2022-12-13T09:15:30;101010.81;;;-1.15;84.21
62708;BME280;48769;51.624;5.886;2022-12-13T09:17:55;101009.97;;;-1.15;83.67
62708;BME280;48769;51.624;5.886;2022-12-13T09:20:21;101004.78;;;-1.15;84.07
62708;BME280;48769;51.624;5.886;2022-12-13T09:22:46;101003.03;;;-1.04;83.58
62708;BME280;48769;51.624;5.886;2022-12-13T09:25:12;101006.50;;;-1.11;82.71
62708;BME280;48769;51.624;5.886;2022-12-13T09:27:37;101008.22;;;-1.09;83.47
62708;BME280;48769;51.624;5.886;2022-12-13T09:30:03;101009.97;;;-1.00;83.06
62708;BME280;48769;51.624;5.886;2022-12-13T09:32:30;101011.66;;;-0.90;83.11
62708;BME280;48769;51.624;5.886;2022-12-13T09:34:55;101013.38;;;-0.86;82.40
62708;BME280;48769;51.624;5.886;2022-12-13T09:37:21;101012.53;;;-0.89;82.62
62708;BME280;48769;51.624;5.886;2022-12-13T09:39:46;101014.25;;;-0.95;82.83
62708;BME280;48769;51.624;5.886;2022-12-13T09:42:19;101007.34;;;-0.89;83.04
62708;BME280;48769;51.624;5.886;2022-12-13T09:44:51;101015.09;;;-0.79;82.59
62708;BME280;48769;51.624;5.886;2022-12-13T09:47:30;101013.38;;;-0.83;82.13
62708;BME280;48769;51.624;5.886;2022-12-13T09:49:59;101012.47;;;-0.73;82.17
62708;BME280;48769;51.624;5.886;2022-12-13T09:52:32;101002.03;;;-0.50;82.36
62708;BME280;48769;51.624;5.886;2022-12-13T09:55:00;101011.56;;;-0.50;81.76
62708;BME280;48769;51.624;5.886;2022-12-13T09:57:28;100999.44;;;-0.45;82.10
62708;BME280;48769;51.624;5.886;2022-12-13T09:59:55;100989.06;;;-0.48;81.33
62708;BME280;48769;51.624;5.886;2022-12-13T10:02:24;100994.25;;;-0.48;82.08
62708;BME280;48769;51.624;5.886;2022-12-13T10:04:50;100979.41;;;-0.15;81.62
62708;BME280;48769;51.624;5.886;2022-12-13T10:07:22;100979.19;;;0.20;80.52
62708;BME280;48769;51.624;5.886;2022-12-13T10:09:55;100970.16;;;0.64;79.58
62708;BME280;48769;51.624;5.886;2022-12-13T10:12:23;100962.00;;;1.02;78.28
62708;BME280;48769;51.624;5.886;2022-12-13T10:14:53;100959.25;;;1.17;77.57
62708;BME280;48769;51.624;5.886;2022-12-13T10:17:22;100955.78;;;1.15;76.87
62708;BME280;48769;51.624;5.886;2022-12-13T10:19:50;100956.91;;;1.67;77.46
62708;BME280;48769;51.624;5.886;2022-12-13T10:22:18;100948.59;;;2.02;74.71
62708;BME280;48769;51.624;5.886;2022-12-13T10:24:53;100945.66;;;2.24;73.11
62708;BME280;48769;51.624;5.886;2022-12-13T10:33:00;100938.09;;;2.08;72.29
62708;BME280;48769;51.624;5.886;2022-12-13T10:35:28;100940.94;;;1.92;73.51
62708;BME280;48769;51.624;5.886;2022-12-13T10:37:56;100935.09;;;1.76;74.01
62708;BME280;48769;51.624;5.886;2022-12-13T10:40:35;100921.47;;;2.14;73.89
62708;BME280;48769;51.624;5.886;2022-12-13T10:43:24;100914.53;;;2.66;72.95
62708;BME280;48769;51.624;5.886;2022-12-13T10:48:21;100900.63;;;3.54;69.72
62708;BME280;48769;51.624;5.886;2022-12-13T10:51:18;100905.78;;;3.16;70.09
62708;BME280;48769;51.624;5.886;2022-12-13T10:53:50;100901.69;;;3.01;71.68
62708;BME280;48769;51.624;5.886;2022-12-13T10:56:17;100908.72;;;2.99;71.87
62708;BME280;48769;51.624;5.886;2022-12-13T10:58:45;100904.13;;;2.66;71.95
62708;BME280;48769;51.624;5.886;2022-12-13T11:03:43;100893.34;;;2.84;72.11
62708;BME280;48769;51.624;5.886;2022-12-13T11:06:19;100882.97;;;2.81;70.73
62708;BME280;48769;51.624;5.886;2022-12-13T11:08:44;100892.94;;;3.06;70.71
62708;BME280;48769;51.624;5.886;2022-12-13T11:11:10;100879.28;;;2.91;70.85
62708;BME280;48769;51.624;5.886;2022-12-13T11:13:43;100875.38;;;3.14;70.44
62708;BME280;48769;51.624;5.886;2022-12-13T11:16:33;100876.94;;;3.21;69.75
62708;BME280;48769;51.624;5.886;2022-12-13T11:19:36;100877.59;;;2.90;70.43
62708;BME280;48769;51.624;5.886;2022-12-13T11:22:02;100875.34;;;3.15;70.36
62708;BME280;48769;51.624;5.886;2022-12-13T11:24:31;100877.84;;;3.62;69.39
62708;BME280;48769;51.624;5.886;2022-12-13T11:27:08;100873.13;;;3.78;69.08
62708;BME280;48769;51.624;5.886;2022-12-13T11:38:20;100862.28;;;3.56;68.88
62708;BME280;48769;51.624;5.886;2022-12-13T11:40:52;100862.47;;;3.85;69.66
62708;BME280;48769;51.624;5.886;2022-12-13T11:43:36;100861.28;;;3.98;67.10
62708;BME280;48769;51.624;5.886;2022-12-13T11:46:12;100864.16;;;3.88;68.08
62708;BME280;48769;51.624;5.886;2022-12-13T11:51:12;100858.13;;;4.56;66.97
62708;BME280;48769;51.624;5.886;2022-12-13T11:56:25;100840.50;;;5.53;63.83
62708;BME280;48769;51.624;5.886;2022-12-13T11:59:23;100836.72;;;5.61;63.32
62708;BME280;48769;51.624;5.886;2022-12-13T12:02:09;100827.09;;;5.62;62.06
62708;BME280;48769;51.624;5.886;2022-12-13T12:04:47;100825.88;;;6.02;61.87
62708;BME280;48769;51.624;5.886;2022-12-13T12:07:15;100825.38;;;6.67;59.88
62708;BME280;48769;51.624;5.886;2022-12-13T12:09:57;100807.34;;;7.50;57.67
62708;BME280;48769;51.624;5.886;2022-12-13T12:12:34;100807.44;;;7.71;55.67
62708;BME280;48769;51.624;5.886;2022-12-13T12:15:25;100796.41;;;6.94;54.28
62708;BME280;48769;51.624;5.886;2022-12-13T12:17:54;100798.81;;;6.76;56.36
62708;BME280;48769;51.624;5.886;2022-12-13T12:20:47;100800.72;;;6.71;56.13
62708;BME280;48769;51.624;5.886;2022-12-13T12:23:17;100803.19;;;7.67;56.17
62708;BME280;48769;51.624;5.886;2022-12-13T12:25:52;100786.91;;;8.01;54.59
62708;BME280;48769;51.624;5.886;2022-12-13T12:31:22;100800.16;;;7.10;55.76
62708;BME280;48769;51.624;5.886;2022-12-13T12:33:59;100786.31;;;7.72;54.25
62708;BME280;48769;51.624;5.886;2022-12-13T12:39:57;100804.25;;;7.17;53.72
62708;BME280;48769;51.624;5.886;2022-12-13T12:42:54;100799.34;;;7.54;53.43
62708;BME280;48769;51.624;5.886;2022-12-13T12:48:24;100806.09;;;7.15;54.46
62708;BME280;48769;51.624;5.886;2022-12-13T12:51:06;100799.13;;;6.67;53.97
62708;BME280;48769;51.624;5.886;2022-12-13T12:53:40;100802.03;;;6.35;55.22
62708;BME280;48769;51.624;5.886;2022-12-13T12:56:24;100798.31;;;6.15;54.97
62708;BME280;48769;51.624;5.886;2022-12-13T13:01:50;100805.94;;;6.48;54.90
62708;BME280;48769;51.624;5.886;2022-12-13T13:04:22;100805.47;;;5.83;56.03
62708;BME280;48769;51.624;5.886;2022-12-13T13:06:54;100793.19;;;5.84;57.06
62708;BME280;48769;51.624;5.886;2022-12-13T13:09:22;100794.66;;;5.66;57.12
62708;BME280;48769;51.624;5.886;2022-12-13T13:11:48;100790.25;;;5.40;57.32
62708;BME280;48769;51.624;5.886;2022-12-13T13:14:33;100788.50;;;5.11;58.16
62708;BME280;48769;51.624;5.886;2022-12-13T13:22:29;100789.72;;;4.99;59.35
62708;BME280;48769;51.624;5.886;2022-12-13T13:25:15;100787.25;;;4.95;60.03
62708;BME280;48769;51.624;5.886;2022-12-13T13:27:45;100784.25;;;4.77;60.38
62708;BME280;48769;51.624;5.886;2022-12-13T13:30:22;100776.03;;;4.60;59.76
62708;BME280;48769;51.624;5.886;2022-12-13T13:32:50;100793.13;;;4.40;60.98
62708;BME280;48769;51.624;5.886;2022-12-13T13:37:58;100790.22;;;4.18;61.49
62708;BME280;48769;51.624;5.886;2022-12-13T13:45:27;100785.84;;;3.85;63.02
62708;BME280;48769;51.624;5.886;2022-12-13T13:48:08;100770.00;;;3.91;63.09
62708;BME280;48769;51.624;5.886;2022-12-13T13:53:33;100772.50;;;3.60;63.44
62708;BME280;48769;51.624;5.886;2022-12-13T14:08:27;100751.16;;;3.42;66.12
62708;BME280;48769;51.624;5.886;2022-12-13T14:11:41;100747.88;;;3.34;65.56
62708;BME280;48769;51.624;5.886;2022-12-13T14:14:40;100749.81;;;3.26;66.84
62708;BME280;48769;51.624;5.886;2022-12-13T14:23:00;100756.94;;;3.18;67.29
62708;BME280;48769;51.624;5.886;2022-12-13T14:30:42;100772.97;;;3.01;67.38
62708;BME280;48769;51.624;5.886;2022-12-13T14:33:18;100765.03;;;3.07;66.93
62708;BME280;48769;51.624;5.886;2022-12-13T14:35:59;100762.47;;;3.04;67.03
62708;BME280;48769;51.624;5.886;2022-12-13T14:38:29;100768.63;;;3.01;67.73
62708;BME280;48769;51.624;5.886;2022-12-13T14:40:57;100763.38;;;3.03;68.00
62708;BME280;48769;51.624;5.886;2022-12-13T14:43:28;100754.66;;;3.04;68.17
62708;BME280;48769;51.624;5.886;2022-12-13T14:45:55;100750.28;;;3.04;68.45